sensor_id;sensor_type;location;lat;lon;timestamp;pressure;altitude;pressure_sealevel;temperature;humidity
39357;BME280;25077;50.302;18.996;2022-12-20T00:00:07;99117.13;;;-1.91;69.53
39357;BME280;25077;50.302;18.996;2022-12-20T00:03:09;99121.38;;;-1.90;69.75
39357;BME280;25077;50.302;18.996;2022-12-20T00:06:12;99113.91;;;-1.93;69.70
39357;BME280;25077;50.302;18.996;2022-12-20T00:09:14;99111.59;;;-1.85;69.68
39357;BME280;25077;50.302;18.996;2022-12-20T00:12:16;99124.91;;;-1.80;69.41
39357;BME280;25077;50.302;18.996;2022-12-20T00:15:20;99116.69;;;-1.78;69.17
39357;BME280;25077;50.302;18.996;2022-12-20T00:18:22;99105.81;;;-1.72;68.98
39357;BME280;25077;50.302;18.996;2022-12-20T00:21:25;99113.78;;;-1.72;69.24
39357;BME280;25077;50.302;18.996;2022-12-20T00:24:27;99106.38;;;-1.69;69.15
39357;BME280;25077;50.302;18.996;2022-12-20T00:27:29;99106.91;;;-1.67;69.51
39357;BME280;25077;50.302;18.996;2022-12-20T00:30:34;99094.63;;;-1.79;69.20
39357;BME280;25077;50.302;18.996;2022-12-20T00:33:37;99102.69;;;-1.63;69.41
39357;BME280;25077;50.302;18.996;2022-12-20T00:36:42;99107.22;;;-1.64;69.33
39357;BME280;25077;50.302;18.996;2022-12-20T00:39:45;99105.84;;;-1.66;69.36
39357;BME280;25077;50.302;18.996;2022-12-20T00:42:47;99093.91;;;-1.69;69.64
39357;BME280;25077;50.302;18.996;2022-12-20T00:45:50;99091.53;;;-1.60;69.77
39357;BME280;25077;50.302;18.996;2022-12-20T00:48:53;99105.09;;;-1.62;69.75
39357;BME280;25077;50.302;18.996;2022-12-20T00:51:56;99085.66;;;-1.67;70.29
39357;BME280;25077;50.302;18.996;2022-12-20T00:54:58;99084.56;;;-1.72;70.49
39357;BME280;25077;50.302;18.996;2022-12-20T00:58:00;99068.69;;;-1.61;70.49
39357;BME280;25077;50.302;18.996;2022-12-20T01:01:05;99072.94;;;-1.60;70.41
39357;BME280;25077;50.302;18.996;2022-12-20T01:04:08;99061.28;;;-1.54;70.31
39357;BME280;25077;50.302;18.996;2022-12-20T01:07:10;99092.88;;;-1.63;70.71
39357;BME280;25077;50.302;18.996;2022-12-20T01:10:12;99104.00;;;-1.66;71.38
39357;BME280;25077;50.302;18.996;2022-12-20T01:13:14;99110.63;;;-1.68;71.68
39357;BME280;25077;50.302;18.996;2022-12-20T01:16:20;99088.59;;;-1.69;71.85
39357;BME280;25077;50.302;18.996;2022-12-20T01:19:23;99097.91;;;-1.61;71.97
39357;BME280;25077;50.302;18.996;2022-12-20T01:22:25;99097.88;;;-1.66;72.58
39357;BME280;25077;50.302;18.996;2022-12-20T01:25:27;99097.38;;;-1.63;72.72
39357;BME280;25077;50.302;18.996;2022-12-20T01:28:30;99091.78;;;-1.67;72.89
39357;BME280;25077;50.302;18.996;2022-12-20T01:31:34;99080.91;;;-1.60;72.81
39357;BME280;25077;50.302;18.996;2022-12-20T01:34:36;99073.50;;;-1.58;72.90
39357;BME280;25077;50.302;18.996;2022-12-20T01:37:39;99081.44;;;-1.63;72.92
39357;BME280;25077;50.302;18.996;2022-12-20T01:40:41;99088.34;;;-1.62;73.16
39357;BME280;25077;50.302;18.996;2022-12-20T01:43:48;99063.41;;;-1.56;72.85
39357;BME280;25077;50.302;18.996;2022-12-20T01:46:53;99050.69;;;-1.49;72.64
39357;BME280;25077;50.302;18.996;2022-12-20T01:49:57;99045.63;;;-1.51;72.95
39357;BME280;25077;50.302;18.996;2022-12-20T01:53:01;99058.63;;;-1.54;72.49
39357;BME280;25077;50.302;18.996;2022-12-20T01:56:06;99050.66;;;-1.54;72.52
39357;BME280;25077;50.302;18.996;2022-12-20T01:59:10;99043.47;;;-1.54;72.35
39357;BME280;25077;50.302;18.996;2022-12-20T02:02:15;99044.56;;;-1.50;72.42
39357;BME280;25077;50.302;18.996;2022-12-20T02:05:19;99045.91;;;-1.47;72.27
39357;BME280;25077;50.302;18.996;2022-12-20T02:08:21;99057.38;;;-1.41;72.11
39357;BME280;25077;50.302;18.996;2022-12-20T02:11:34;99061.09;;;-1.32;71.71
39357;BME280;25077;50.302;18.996;2022-12-20T02:14:54;99083.44;;;-1.33;71.98
39357;BME280;25077;50.302;18.996;2022-12-20T02:18:16;99063.50;;;-1.36;72.23
39357;BME280;25077;50.302;18.996;2022-12-20T02:21:27;99054.16;;;-1.38;72.39
39357;BME280;25077;50.302;18.996;2022-12-20T02:25:06;99050.47;;;-1.32;72.17
39357;BME280;25077;50.302;18.996;2022-12-20T02:28:30;99034.78;;;-1.39;72.28
39357;BME280;25077;50.302;18.996;2022-12-20T02:31:42;99039.59;;;-1.36;72.40
39357;BME280;25077;50.302;18.996;2022-12-20T02:34:47;99022.00;;;-1.47;72.56
39357;BME280;25077;50.302;18.996;2022-12-20T02:37:52;99026.75;;;-1.49;72.80
39357;BME280;25077;50.302;18.996;2022-12-20T02:40:59;99047.97;;;-1.59;72.96
39357;BME280;25077;50.302;18.996;2022-12-20T02:44:06;99048.00;;;-1.54;72.60
39357;BME280;25077;50.302;18.996;2022-12-20T02:47:32;99042.41;;;-1.58;72.91
39357;BME280;25077;50.302;18.996;2022-12-20T02:50:40;99027.00;;;-1.61;73.05
39357;BME280;25077;50.302;18.996;2022-12-20T02:53:46;99025.13;;;-1.60;73.08
39357;BME280;25077;50.302;18.996;2022-12-20T02:56:50;99032.00;;;-1.64;73.00
39357;BME280;25077;50.302;18.996;2022-12-20T02:59:59;99012.88;;;-1.66;73.07
39357;BME280;25077;50.302;18.996;2022-12-20T03:03:08;99018.72;;;-1.64;72.81
39357;BME280;25077;50.302;18.996;2022-12-20T03:06:23;98988.44;;;-1.68;72.76
39357;BME280;25077;50.302;18.996;2022-12-20T03:09:26;99015.53;;;-1.72;73.00
39357;BME280;25077;50.302;18.996;2022-12-20T03:12:28;99018.16;;;-1.77;73.10
39357;BME280;25077;50.302;18.996;2022-12-20T03:15:30;99012.84;;;-1.77;72.88
39357;BME280;25077;50.302;18.996;2022-12-20T03:18:37;99014.97;;;-1.79;73.16
39357;BME280;25077;50.302;18.996;2022-12-20T03:21:39;99020.31;;;-1.74;72.62
39357;BME280;25077;50.302;18.996;2022-12-20T03:24:42;99012.31;;;-1.79;72.84
39357;BME280;25077;50.302;18.996;2022-12-20T03:27:46;99011.28;;;-1.73;72.57
39357;BME280;25077;50.302;18.996;2022-12-20T03:30:49;98991.59;;;-1.77;72.60
39357;BME280;25077;50.302;18.996;2022-12-20T03:33:52;98988.16;;;-1.72;72.40
39357;BME280;25077;50.302;18.996;2022-12-20T03:36:54;98992.66;;;-1.78;72.60
39357;BME280;25077;50.302;18.996;2022-12-20T03:39:57;98999.31;;;-1.80;72.67
39357;BME280;25077;50.302;18.996;2022-12-20T03:42:59;98993.44;;;-1.82;72.83
39357;BME280;25077;50.302;18.996;2022-12-20T03:46:02;98987.63;;;-1.79;72.80
39357;BME280;25077;50.302;18.996;2022-12-20T03:49:10;98994.22;;;-1.82;72.60
39357;BME280;25077;50.302;18.996;2022-12-20T03:52:19;98991.59;;;-1.77;72.24
39357;BME280;25077;50.302;18.996;2022-12-20T03:55:21;98994.22;;;-1.82;72.81
39357;BME280;25077;50.302;18.996;2022-12-20T03:58:25;99006.19;;;-1.79;72.81
39357;BME280;25077;50.302;18.996;2022-12-20T04:01:28;99001.97;;;-1.80;72.62
39357;BME280;25077;50.302;18.996;2022-12-20T04:04:32;98998.22;;;-1.79;72.63
39357;BME280;25077;50.302;18.996;2022-12-20T04:07:34;98993.19;;;-1.81;72.76
39357;BME280;25077;50.302;18.996;2022-12-20T04:10:36;98997.91;;;-1.88;72.74
39357;BME280;25077;50.302;18.996;2022-12-20T04:14:01;98992.59;;;-1.88;72.67
39357;BME280;25077;50.302;18.996;2022-12-20T04:17:04;98988.66;;;-1.85;72.79
39357;BME280;25077;50.302;18.996;2022-12-20T04:20:12;99018.13;;;-1.82;72.86
39357;BME280;25077;50.302;18.996;2022-12-20T04:23:29;98995.25;;;-1.88;73.05
39357;BME280;25077;50.302;18.996;2022-12-20T04:26:33;99002.72;;;-1.85;73.01
39357;BME280;25077;50.302;18.996;2022-12-20T04:29:37;99006.97;;;-1.84;72.86
39357;BME280;25077;50.302;18.996;2022-12-20T04:32:43;98998.47;;;-1.86;73.05
39357;BME280;25077;50.302;18.996;2022-12-20T04:35:46;99005.41;;;-1.80;73.12
39357;BME280;25077;50.302;18.996;2022-12-20T04:38:50;99018.41;;;-1.83;73.01
39357;BME280;25077;50.302;18.996;2022-12-20T04:41:54;99009.94;;;-1.75;72.88
39357;BME280;25077;50.302;18.996;2022-12-20T04:44:56;99005.13;;;-1.78;72.93
39357;BME280;25077;50.302;18.996;2022-12-20T04:48:02;99004.06;;;-1.77;72.89
39357;BME280;25077;50.302;18.996;2022-12-20T04:51:12;99005.44;;;-1.75;72.96
39357;BME280;25077;50.302;18.996;2022-12-20T04:54:15;99005.44;;;-1.75;73.12
39357;BME280;25077;50.302;18.996;2022-12-20T04:57:29;99008.63;;;-1.73;73.14
39357;BME280;25077;50.302;18.996;2022-12-20T05:00:32;99002.50;;;-1.73;73.20
39357;BME280;25077;50.302;18.996;2022-12-20T05:03:42;99005.69;;;-1.71;73.17
39357;BME280;25077;50.302;18.996;2022-12-20T05:06:46;98989.75;;;-1.71;73.16
39357;BME280;25077;50.302;18.996;2022-12-20T05:09:48;98988.97;;;-1.72;73.14
39357;BME280;25077;50.302;18.996;2022-12-20T05:12:51;98988.97;;;-1.72;73.05
39357;BME280;25077;50.302;18.996;2022-12-20T05:16:05;98982.06;;;-1.67;73.09
39357;BME280;25077;50.302;18.996;2022-12-20T05:19:09;98996.09;;;-1.77;73.29
39357;BME280;25077;50.302;18.996;2022-12-20T05:22:15;98962.94;;;-1.75;73.56
39357;BME280;25077;50.302;18.996;2022-12-20T05:25:46;98964.78;;;-1.75;73.20
39357;BME280;25077;50.302;18.996;2022-12-20T05:29:05;98969.84;;;-1.74;73.26
39357;BME280;25077;50.302;18.996;2022-12-20T05:32:08;98973.28;;;-1.78;73.51
39357;BME280;25077;50.302;18.996;2022-12-20T05:35:13;98979.09;;;-1.76;73.32
39357;BME280;25077;50.302;18.996;2022-12-20T05:38:18;98991.34;;;-1.80;73.63
39357;BME280;25077;50.302;18.996;2022-12-20T05:41:21;98970.31;;;-1.82;73.83
39357;BME280;25077;50.302;18.996;2022-12-20T05:44:25;98982.03;;;-1.78;73.48
39357;BME280;25077;50.302;18.996;2022-12-20T05:47:31;98965.59;;;-1.75;73.30
39357;BME280;25077;50.302;18.996;2022-12-20T05:50:39;98950.94;;;-1.82;73.66
39357;BME280;25077;50.302;18.996;2022-12-20T05:54:00;98974.34;;;-1.79;73.35
39357;BME280;25077;50.302;18.996;2022-12-20T05:57:16;98969.78;;;-1.84;73.72
39357;BME280;25077;50.302;18.996;2022-12-20T06:00:20;98950.69;;;-1.81;73.29
39357;BME280;25077;50.302;18.996;2022-12-20T06:03:25;98947.50;;;-1.78;73.78
39357;BME280;25077;50.302;18.996;2022-12-20T06:06:27;98946.44;;;-1.82;73.88
39357;BME280;25077;50.302;18.996;2022-12-20T06:09:31;98935.28;;;-1.79;73.62
39357;BME280;25077;50.302;18.996;2022-12-20T06:12:41;98952.03;;;-1.78;73.54
39357;BME280;25077;50.302;18.996;2022-12-20T06:15:43;98951.22;;;-1.79;73.54
39357;BME280;25077;50.302;18.996;2022-12-20T06:18:45;98949.66;;;-1.75;73.27
39357;BME280;25077;50.302;18.996;2022-12-20T06:21:48;98958.13;;;-1.78;73.56
39357;BME280;25077;50.302;18.996;2022-12-20T06:24:55;98951.22;;;-1.79;73.54
39357;BME280;25077;50.302;18.996;2022-12-20T06:28:01;98955.47;;;-1.83;73.63
39357;BME280;25077;50.302;18.996;2022-12-20T06:31:04;98967.69;;;-1.87;73.98
39357;BME280;25077;50.302;18.996;2022-12-20T06:34:15;98959.16;;;-1.89;73.88
39357;BME280;25077;50.302;18.996;2022-12-20T06:37:18;98959.72;;;-1.87;74.01
39357;BME280;25077;50.302;18.996;2022-12-20T06:40:22;98952.75;;;-1.93;74.33
39357;BME280;25077;50.302;18.996;2022-12-20T06:43:25;98941.09;;;-1.92;74.22
39357;BME280;25077;50.302;18.996;2022-12-20T06:46:28;98936.84;;;-1.88;74.00
39357;BME280;25077;50.302;18.996;2022-12-20T06:49:31;98946.94;;;-1.90;74.29
39357;BME280;25077;50.302;18.996;2022-12-20T06:52:33;98950.69;;;-1.86;74.15
39357;BME280;25077;50.302;18.996;2022-12-20T06:55:38;98950.69;;;-1.86;74.32
39357;BME280;25077;50.302;18.996;2022-12-20T06:58:40;98954.66;;;-1.83;74.24
39357;BME280;25077;50.302;18.996;2022-12-20T07:01:42;98958.13;;;-1.78;74.01
39357;BME280;25077;50.302;18.996;2022-12-20T07:04:45;98961.06;;;-1.79;74.17
39357;BME280;25077;50.302;18.996;2022-12-20T07:07:47;98960.28;;;-1.75;73.96
39357;BME280;25077;50.302;18.996;2022-12-20T07:10:51;98971.69;;;-1.74;74.13
39357;BME280;25077;50.302;18.996;2022-12-20T07:13:54;98980.47;;;-1.74;74.13
39357;BME280;25077;50.302;18.996;2022-12-20T07:16:57;98953.91;;;-1.74;74.03
39357;BME280;25077;50.302;18.996;2022-12-20T07:19:59;98965.06;;;-1.72;73.94
39357;BME280;25077;50.302;18.996;2022-12-20T07:23:01;98956.31;;;-1.67;73.96
39357;BME280;25077;50.302;18.996;2022-12-20T07:26:04;98957.13;;;-1.61;73.75
39357;BME280;25077;50.302;18.996;2022-12-20T07:29:07;98961.69;;;-1.52;73.51
39357;BME280;25077;50.302;18.996;2022-12-20T07:32:10;98972.06;;;-1.45;73.49
39357;BME280;25077;50.302;18.996;2022-12-20T07:35:14;98985.34;;;-1.40;73.04
39357;BME280;25077;50.302;18.996;2022-12-20T07:38:16;98968.59;;;-1.40;72.90
39357;BME280;25077;50.302;18.996;2022-12-20T07:41:20;98957.19;;;-1.36;72.73
39357;BME280;25077;50.302;18.996;2022-12-20T07:44:23;98955.59;;;-1.32;72.77
39357;BME280;25077;50.302;18.996;2022-12-20T07:47:27;98959.03;;;-1.31;72.61
39357;BME280;25077;50.302;18.996;2022-12-20T07:50:30;98949.22;;;-1.26;72.57
39357;BME280;25077;50.302;18.996;2022-12-20T07:53:35;98939.94;;;-1.18;72.34
39357;BME280;25077;50.302;18.996;2022-12-20T07:56:42;98952.41;;;-1.13;71.92
39357;BME280;25077;50.302;18.996;2022-12-20T07:59:48;98940.47;;;-1.11;72.46
39357;BME280;25077;50.302;18.996;2022-12-20T08:02:53;98951.91;;;-1.10;71.87
39357;BME280;25077;50.302;18.996;2022-12-20T08:05:58;98940.19;;;-1.04;71.83
39357;BME280;25077;50.302;18.996;2022-12-20T08:09:05;98935.44;;;-1.07;71.89
39357;BME280;25077;50.302;18.996;2022-12-20T08:12:09;98925.03;;;-1.04;71.72
39357;BME280;25077;50.302;18.996;2022-12-20T08:15:13;98928.25;;;-1.02;72.06
39357;BME280;25077;50.302;18.996;2022-12-20T08:18:16;98946.59;;;-1.05;71.96
39357;BME280;25077;50.302;18.996;2022-12-20T08:21:18;98933.53;;;-0.92;71.77
39357;BME280;25077;50.302;18.996;2022-12-20T08:24:20;98929.84;;;-0.96;71.48
39357;BME280;25077;50.302;18.996;2022-12-20T08:27:24;98936.47;;;-0.88;71.92
39357;BME280;25077;50.302;18.996;2022-12-20T08:30:26;98948.72;;;-0.92;71.54
39357;BME280;25077;50.302;18.996;2022-12-20T08:33:29;98946.56;;;-0.80;71.76
39357;BME280;25077;50.302;18.996;2022-12-20T08:36:31;98948.16;;;-0.74;71.23
39357;BME280;25077;50.302;18.996;2022-12-20T08:39:33;98950.03;;;-0.69;70.96
39357;BME280;25077;50.302;18.996;2022-12-20T08:42:37;98939.09;;;-0.63;70.65
39357;BME280;25077;50.302;18.996;2022-12-20T08:45:39;98942.28;;;-0.45;70.05
39357;BME280;25077;50.302;18.996;2022-12-20T08:48:42;98935.34;;;-0.36;69.95
39357;BME280;25077;50.302;18.996;2022-12-20T08:51:44;98922.03;;;-0.31;69.52
39357;BME280;25077;50.302;18.996;2022-12-20T08:54:46;98924.66;;;-0.21;69.56
39357;BME280;25077;50.302;18.996;2022-12-20T08:57:49;98935.28;;;-0.16;69.41
39357;BME280;25077;50.302;18.996;2022-12-20T09:00:51;98932.84;;;-0.07;69.58
39357;BME280;25077;50.302;18.996;2022-12-20T09:03:53;98937.41;;;-0.13;68.90
39357;BME280;25077;50.302;18.996;2022-12-20T09:06:56;98930.75;;;-0.10;68.85
39357;BME280;25077;50.302;18.996;2022-12-20T09:09:58;98910.22;;;-0.04;68.56
39357;BME280;25077;50.302;18.996;2022-12-20T09:13:01;98911.31;;;-0.11;68.34
39357;BME280;25077;50.302;18.996;2022-12-20T09:16:04;98933.41;;;-0.10;68.60
39357;BME280;25077;50.302;18.996;2022-12-20T09:19:10;98904.94;;;-0.15;68.86
39357;BME280;25077;50.302;18.996;2022-12-20T09:22:13;98898.25;;;-0.12;68.62
39357;BME280;25077;50.302;18.996;2022-12-20T09:25:16;98901.47;;;-0.10;68.35
39357;BME280;25077;50.302;18.996;2022-12-20T09:28:19;98910.53;;;-0.16;67.99
39357;BME280;25077;50.302;18.996;2022-12-20T09:31:23;98911.31;;;-0.11;68.29
39357;BME280;25077;50.302;18.996;2022-12-20T09:34:26;98918.75;;;-0.07;68.39
39357;BME280;25077;50.302;18.996;2022-12-20T09:37:29;98917.66;;;-0.01;68.34
39357;BME280;25077;50.302;18.996;2022-12-20T09:40:32;98910.47;;;-0.01;68.22
39357;BME280;25077;50.302;18.996;2022-12-20T09:43:38;98904.28;;;0.09;68.16
39357;BME280;25077;50.302;18.996;2022-12-20T09:46:43;98886.94;;;0.16;67.45
39357;BME280;25077;50.302;18.996;2022-12-20T09:49:48;98876.50;;;0.25;67.19
39357;BME280;25077;50.302;18.996;2022-12-20T09:53:01;98865.78;;;0.35;66.73
39357;BME280;25077;50.302;18.996;2022-12-20T09:56:09;98867.06;;;0.43;66.83
39357;BME280;25077;50.302;18.996;2022-12-20T09:59:18;98859.78;;;0.54;66.35
39357;BME280;25077;50.302;18.996;2022-12-20T10:02:22;98867.22;;;0.57;66.14
39357;BME280;25077;50.302;18.996;2022-12-20T10:05:32;98879.25;;;0.54;65.70
39357;BME280;25077;50.302;18.996;2022-12-20T10:08:44;98881.28;;;0.67;66.22
39357;BME280;25077;50.302;18.996;2022-12-20T10:12:00;98876.81;;;0.63;65.12
39357;BME280;25077;50.302;18.996;2022-12-20T10:15:16;98888.72;;;0.71;65.89
39357;BME280;25077;50.302;18.996;2022-12-20T10:18:33;98872.91;;;0.79;65.69
39357;BME280;25077;50.302;18.996;2022-12-20T10:21:43;98878.78;;;0.81;65.38
39357;BME280;25077;50.302;18.996;2022-12-20T10:24:54;98866.28;;;0.77;65.18
39357;BME280;25077;50.302;18.996;2022-12-20T10:28:01;98860.47;;;0.69;65.71
39357;BME280;25077;50.302;18.996;2022-12-20T10:31:07;98862.00;;;0.47;64.90
39357;BME280;25077;50.302;18.996;2022-12-20T10:34:12;98864.91;;;0.45;65.64
39357;BME280;25077;50.302;18.996;2022-12-20T10:37:15;98856.66;;;0.47;65.76
39357;BME280;25077;50.302;18.996;2022-12-20T10:40:25;98843.66;;;0.40;66.07
39357;BME280;25077;50.302;18.996;2022-12-20T10:43:42;98835.41;;;0.36;65.76
39357;BME280;25077;50.302;18.996;2022-12-20T10:46:49;98829.56;;;0.34;66.03
39357;BME280;25077;50.302;18.996;2022-12-20T10:50:07;98843.94;;;0.33;66.20
39357;BME280;25077;50.302;18.996;2022-12-20T10:53:20;98817.81;;;0.35;66.21
39357;BME280;25077;50.302;18.996;2022-12-20T10:56:25;98860.25;;;0.27;65.97
39357;BME280;25077;50.302;18.996;2022-12-20T10:59:32;98814.13;;;0.31;66.36
39357;BME280;25077;50.302;18.996;2022-12-20T11:02:38;98800.78;;;0.31;66.65
39357;BME280;25077;50.302;18.996;2022-12-20T11:05:52;98796.50;;;0.35;65.79
39357;BME280;25077;50.302;18.996;2022-12-20T11:09:20;98784.78;;;0.36;65.98
39357;BME280;25077;50.302;18.996;2022-12-20T11:12:23;98783.16;;;0.40;66.42
39357;BME280;25077;50.302;18.996;2022-12-20T11:15:27;98777.53;;;0.42;65.47
39357;BME280;25077;50.302;18.996;2022-12-20T11:18:39;98773.94;;;0.57;65.58
39357;BME280;25077;50.302;18.996;2022-12-20T11:21:52;98764.34;;;0.56;64.93
39357;BME280;25077;50.302;18.996;2022-12-20T11:25:10;98767.38;;;0.73;65.52
39357;BME280;25077;50.302;18.996;2022-12-20T11:28:30;98763.75;;;0.93;65.47
39357;BME280;25077;50.302;18.996;2022-12-20T11:31:43;98767.03;;;1.09;64.16
39357;BME280;25077;50.302;18.996;2022-12-20T11:34:59;98761.38;;;1.15;63.40
39357;BME280;25077;50.302;18.996;2022-12-20T11:38:10;98761.09;;;1.60;63.68
39357;BME280;25077;50.302;18.996;2022-12-20T11:41:20;98761.75;;;2.08;61.84
39357;BME280;25077;50.302;18.996;2022-12-20T11:44:32;98752.81;;;2.32;59.90
39357;BME280;25077;50.302;18.996;2022-12-20T11:47:54;98779.19;;;2.38;59.62
39357;BME280;25077;50.302;18.996;2022-12-20T11:51:08;98756.28;;;2.32;59.49
39357;BME280;25077;50.302;18.996;2022-12-20T11:54:13;98797.19;;;2.14;60.10
39357;BME280;25077;50.302;18.996;2022-12-20T11:57:23;98778.72;;;1.98;60.40
39357;BME280;25077;50.302;18.996;2022-12-20T12:00:27;98775.97;;;1.85;61.58
39357;BME280;25077;50.302;18.996;2022-12-20T12:03:33;98771.78;;;1.60;60.73
39357;BME280;25077;50.302;18.996;2022-12-20T12:06:40;98761.47;;;1.29;60.89
39357;BME280;25077;50.302;18.996;2022-12-20T12:09:51;98761.13;;;1.12;62.47
39357;BME280;25077;50.302;18.996;2022-12-20T12:12:59;98759.44;;;0.97;62.65
39357;BME280;25077;50.302;18.996;2022-12-20T12:16:07;98768.03;;;0.89;63.26
39357;BME280;25077;50.302;18.996;2022-12-20T12:19:12;98762.09;;;0.97;63.47
39357;BME280;25077;50.302;18.996;2022-12-20T12:22:31;98758.63;;;0.96;63.88
39357;BME280;25077;50.302;18.996;2022-12-20T12:25:34;98756.22;;;0.95;63.74
39357;BME280;25077;50.302;18.996;2022-12-20T12:28:37;98743.88;;;0.80;64.19
39357;BME280;25077;50.302;18.996;2022-12-20T12:31:45;98773.06;;;0.66;64.31
39357;BME280;25077;50.302;18.996;2022-12-20T12:35:02;98753.34;;;0.62;64.48
39357;BME280;25077;50.302;18.996;2022-12-20T12:45:42;98741.94;;;0.57;64.92
39357;BME280;25077;50.302;18.996;2022-12-20T12:48:52;98740.69;;;0.49;64.57
39357;BME280;25077;50.302;18.996;2022-12-20T12:51:58;98740.34;;;0.56;65.04
39357;BME280;25077;50.302;18.996;2022-12-20T12:55:03;98733.31;;;0.41;64.98
39357;BME280;25077;50.302;18.996;2022-12-20T12:58:33;98737.88;;;0.35;64.87
39357;BME280;25077;50.302;18.996;2022-12-20T13:02:18;98726.66;;;0.38;65.63
39357;BME280;25077;50.302;18.996;2022-12-20T13:05:30;98721.06;;;0.40;65.53
39357;BME280;25077;50.302;18.996;2022-12-20T13:08:46;98723.41;;;0.47;65.64
39357;BME280;25077;50.302;18.996;2022-12-20T13:11:52;98742.06;;;0.47;65.24
39357;BME280;25077;50.302;18.996;2022-12-20T13:14:54;98722.03;;;0.49;65.16
39357;BME280;25077;50.302;18.996;2022-12-20T13:17:57;98727.59;;;0.53;65.31
39357;BME280;25077;50.302;18.996;2022-12-20T13:21:31;98715.66;;;0.45;65.90
39357;BME280;25077;50.302;18.996;2022-12-20T13:24:54;98718.88;;;0.47;65.57
39357;BME280;25077;50.302;18.996;2022-12-20T13:31:33;98723.94;;;0.43;65.69
39357;BME280;25077;50.302;18.996;2022-12-20T13:34:38;98729.81;;;0.46;65.90
39357;BME280;25077;50.302;18.996;2022-12-20T13:37:55;98735.94;;;0.46;66.22
39357;BME280;25077;50.302;18.996;2022-12-20T13:40:59;98720.25;;;0.39;66.40
39357;BME280;25077;50.302;18.996;2022-12-20T13:44:34;98719.50;;;0.34;66.59
39357;BME280;25077;50.302;18.996;2022-12-20T13:47:43;98734.69;;;0.33;66.23
39357;BME280;25077;50.302;18.996;2022-12-20T13:50:48;98734.19;;;0.31;66.76
39357;BME280;25077;50.302;18.996;2022-12-20T13:53:53;98727.81;;;0.27;66.74
39357;BME280;25077;50.302;18.996;2022-12-20T13:56:56;98731.06;;;0.24;67.03
39357;BME280;25077;50.302;18.996;2022-12-20T14:00:03;98737.72;;;0.22;67.18
39357;BME280;25077;50.302;18.996;2022-12-20T14:03:18;98724.41;;;0.22;67.09
39357;BME280;25077;50.302;18.996;2022-12-20T14:06:22;98730.00;;;0.20;67.16
39357;BME280;25077;50.302;18.996;2022-12-20T14:09:30;98724.91;;;0.29;67.18
39357;BME280;25077;50.302;18.996;2022-12-20T14:12:33;98715.03;;;0.29;67.26
39357;BME280;25077;50.302;18.996;2022-12-20T14:15:35;98719.28;;;0.30;67.01
39357;BME280;25077;50.302;18.996;2022-12-20T14:18:41;98728.66;;;0.23;66.76
39357;BME280;25077;50.302;18.996;2022-12-20T14:21:44;98723.13;;;0.14;67.36
39357;BME280;25077;50.302;18.996;2022-12-20T14:24:47;98723.22;;;0.04;67.54
39357;BME280;25077;50.302;18.996;2022-12-20T14:27:49;98716.09;;;-0.06;67.58
39357;BME280;25077;50.302;18.996;2022-12-20T14:30:52;98729.69;;;-0.07;68.05
39357;BME280;25077;50.302;18.996;2022-12-20T14:34:04;98742.16;;;-0.03;68.01
39357;BME280;25077;50.302;18.996;2022-12-20T14:37:27;98726.78;;;-0.11;68.30
39357;BME280;25077;50.302;18.996;2022-12-20T14:40:30;98728.09;;;-0.08;68.02
39357;BME280;25077;50.302;18.996;2022-12-20T14:43:41;98731.31;;;-0.12;68.26
39357;BME280;25077;50.302;18.996;2022-12-20T14:46:47;98723.88;;;-0.15;68.59
39357;BME280;25077;50.302;18.996;2022-12-20T14:49:54;98728.97;;;-0.23;68.45
39357;BME280;25077;50.302;18.996;2022-12-20T14:52:58;98729.00;;;-0.28;68.97
39357;BME280;25077;50.302;18.996;2022-12-20T14:56:01;98715.97;;;-0.25;69.09
39357;BME280;25077;50.302;18.996;2022-12-20T14:59:14;98707.19;;;-0.25;68.90
39357;BME280;25077;50.302;18.996;2022-12-20T15:02:33;98706.34;;;-0.21;68.76
39357;BME280;25077;50.302;18.996;2022-12-20T15:08:53;98705.88;;;-0.28;69.03
39357;BME280;25077;50.302;18.996;2022-12-20T15:11:56;98695.75;;;-0.31;69.33
39357;BME280;25077;50.302;18.996;2022-12-20T15:14:58;98705.34;;;-0.30;69.08
39357;BME280;25077;50.302;18.996;2022-12-20T15:18:01;98702.69;;;-0.30;69.18
39357;BME280;25077;50.302;18.996;2022-12-20T15:21:10;98715.44;;;-0.27;68.91
39357;BME280;25077;50.302;18.996;2022-12-20T15:24:15;98712.25;;;-0.29;69.27
39357;BME280;25077;50.302;18.996;2022-12-20T15:27:19;98713.00;;;-0.23;68.76
39357;BME280;25077;50.302;18.996;2022-12-20T15:30:22;98705.63;;;-0.31;69.40
39357;BME280;25077;50.302;18.996;2022-12-20T15:33:26;98709.59;;;-0.29;69.15
39357;BME280;25077;50.302;18.996;2022-12-20T15:36:30;98702.16;;;-0.32;69.18
39357;BME280;25077;50.302;18.996;2022-12-20T15:39:33;98698.16;;;-0.34;69.44
39357;BME280;25077;50.302;18.996;2022-12-20T15:42:37;98694.25;;;-0.42;69.73
39357;BME280;25077;50.302;18.996;2022-12-20T15:45:41;98697.47;;;-0.45;69.72
39357;BME280;25077;50.302;18.996;2022-12-20T15:48:44;98691.03;;;-0.39;69.60
39357;BME280;25077;50.302;18.996;2022-12-20T15:51:48;98687.63;;;-0.45;70.38
39357;BME280;25077;50.302;18.996;2022-12-20T15:54:51;98677.25;;;-0.51;70.16
39357;BME280;25077;50.302;18.996;2022-12-20T15:57:53;98669.53;;;-0.48;69.77
39357;BME280;25077;50.302;18.996;2022-12-20T16:00:59;98676.72;;;-0.48;69.82
39357;BME280;25077;50.302;18.996;2022-12-20T16:04:02;98689.00;;;-0.57;70.21
39357;BME280;25077;50.302;18.996;2022-12-20T16:07:09;98675.47;;;-0.61;70.51
39357;BME280;25077;50.302;18.996;2022-12-20T16:10:13;98674.94;;;-0.63;70.66
39357;BME280;25077;50.302;18.996;2022-12-20T16:13:21;98668.59;;;-0.67;70.65
39357;BME280;25077;50.302;18.996;2022-12-20T16:16:27;98671.50;;;-0.69;70.72
39357;BME280;25077;50.302;18.996;2022-12-20T16:19:29;98686.94;;;-0.71;70.64
39357;BME280;25077;50.302;18.996;2022-12-20T16:22:33;98678.19;;;-0.71;70.81
39357;BME280;25077;50.302;18.996;2022-12-20T16:25:37;98677.38;;;-0.72;70.84
39357;BME280;25077;50.302;18.996;2022-12-20T16:28:39;98663.81;;;-0.70;70.61
39357;BME280;25077;50.302;18.996;2022-12-20T16:31:42;98654.75;;;-0.69;70.45